sensor_id;sensor_type;location;lat;lon;timestamp;pressure;altitude;pressure_sealevel;temperature;humidity
5877;BME280;2964;42.144;24.730;2023-02-24T00:01:55;143423.94;;;7.34;100.00
5877;BME280;2964;42.144;24.730;2023-02-24T00:04:26;143395.16;;;7.22;100.00
5877;BME280;2964;42.144;24.730;2023-02-24T00:06:53;143383.91;;;7.18;100.00
5877;BME280;2964;42.144;24.730;2023-02-24T00:09:23;143417.69;;;7.31;100.00
5877;BME280;2964;42.144;24.730;2023-02-24T00:11:53;143421.47;;;7.33;100.00
5877;BME280;2964;42.144;24.730;2023-02-24T00:14:21;143345.06;;;7.02;100.00
5877;BME280;2964;42.144;24.730;2023-02-24T00:16:49;143391.38;;;7.21;100.00
5877;BME280;2964;42.144;24.730;2023-02-24T00:19:18;143408.94;;;7.28;100.00
5877;BME280;2964;42.144;24.730;2023-02-24T00:21:45;143423.94;;;7.34;100.00
5877;BME280;2964;42.144;24.730;2023-02-24T00:24:12;143363.84;;;7.09;100.00
5877;BME280;2964;42.144;24.730;2023-02-24T00:26:41;143403.91;;;7.26;100.00
5877;BME280;2964;42.144;24.730;2023-02-24T00:29:09;143318.75;;;6.91;100.00
5877;BME280;2964;42.144;24.730;2023-02-24T00:31:38;143356.31;;;7.06;100.00
5877;BME280;2964;42.144;24.730;2023-02-24T00:34:07;143376.38;;;7.14;100.00
5877;BME280;2964;42.144;24.730;2023-02-24T00:36:36;143351.28;;;7.04;100.00
5877;BME280;2964;42.144;24.730;2023-02-24T00:39:05;143309.97;;;6.87;100.00
5877;BME280;2964;42.144;24.730;2023-02-24T00:41:35;143294.97;;;6.81;100.00
5877;BME280;2964;42.144;24.730;2023-02-24T00:44:05;143328.75;;;6.95;100.00
5877;BME280;2964;42.144;24.730;2023-02-24T00:46:35;143338.81;;;6.99;100.00
5877;BME280;2964;42.144;24.730;2023-02-24T00:49:03;143301.22;;;6.84;100.00
5877;BME280;2964;42.144;24.730;2023-02-24T00:51:34;143293.72;;;6.81;100.00
5877;BME280;2964;42.144;24.730;2023-02-24T00:54:02;143213.59;;;6.48;100.00
5877;BME280;2964;42.144;24.730;2023-02-24T00:56:29;143317.50;;;6.90;100.00
5877;BME280;2964;42.144;24.730;2023-02-24T00:58:58;143292.44;;;6.80;100.00
5877;BME280;2964;42.144;24.730;2023-02-24T01:01:27;143308.75;;;6.87;100.00
5877;BME280;2964;42.144;24.730;2023-02-24T01:03:55;143299.97;;;6.83;100.00
5877;BME280;2964;42.144;24.730;2023-02-24T01:06:24;143276.19;;;6.73;100.00
5877;BME280;2964;42.144;24.730;2023-02-24T01:08:52;143296.22;;;6.82;100.00
5877;BME280;2964;42.144;24.730;2023-02-24T01:11:22;143252.38;;;6.64;100.00
5877;BME280;2964;42.144;24.730;2023-02-24T01:14:08;143313.75;;;6.89;100.00
5877;BME280;2964;42.144;24.730;2023-02-24T01:16:36;143328.75;;;6.95;100.00
5877;BME280;2964;42.144;24.730;2023-02-24T01:19:03;143331.28;;;6.96;100.00
5877;BME280;2964;42.144;24.730;2023-02-24T01:21:30;143318.75;;;6.91;100.00
5877;BME280;2964;42.144;24.730;2023-02-24T01:23:57;143281.19;;;6.75;100.00
5877;BME280;2964;42.144;24.730;2023-02-24T01:26:24;143331.28;;;6.96;100.00
5877;BME280;2964;42.144;24.730;2023-02-24T01:28:53;143325.03;;;6.93;100.00
5877;BME280;2964;42.144;24.730;2023-02-24T01:31:20;143345.06;;;7.02;100.00
5877;BME280;2964;42.144;24.730;2023-02-24T01:33:49;143313.75;;;6.89;100.00
5877;BME280;2964;42.144;24.730;2023-02-24T01:36:18;143267.44;;;6.70;100.00
5877;BME280;2964;42.144;24.730;2023-02-24T01:38:46;143368.84;;;7.11;100.00
5877;BME280;2964;42.144;24.730;2023-02-24T01:41:15;143376.38;;;7.14;100.00
5877;BME280;2964;42.144;24.730;2023-02-24T01:43:56;143358.81;;;7.07;100.00
5877;BME280;2964;42.144;24.730;2023-02-24T01:46:24;143352.59;;;7.05;100.00
5877;BME280;2964;42.144;24.730;2023-02-24T01:48:56;143398.91;;;7.24;100.00
5877;BME280;2964;42.144;24.730;2023-02-24T01:51:28;143403.91;;;7.26;100.00
5877;BME280;2964;42.144;24.730;2023-02-24T01:53:57;143435.25;;;7.39;100.00
5877;BME280;2964;42.144;24.730;2023-02-24T01:56:24;143415.22;;;7.30;100.00
5877;BME280;2964;42.144;24.730;2023-02-24T01:58:54;143406.44;;;7.27;100.00
5877;BME280;2964;42.144;24.730;2023-02-24T02:01:21;143378.84;;;7.15;100.00
5877;BME280;2964;42.144;24.730;2023-02-24T02:03:48;143410.16;;;7.28;100.00
5877;BME280;2964;42.144;24.730;2023-02-24T02:06:17;143309.97;;;6.87;100.00
5877;BME280;2964;42.144;24.730;2023-02-24T02:08:44;143274.91;;;6.73;100.00
5877;BME280;2964;42.144;24.730;2023-02-24T02:11:15;143382.63;;;7.17;100.00
5877;BME280;2964;42.144;24.730;2023-02-24T02:13:47;143426.47;;;7.35;100.00
5877;BME280;2964;42.144;24.730;2023-02-24T02:16:24;143410.16;;;7.28;100.00
5877;BME280;2964;42.144;24.730;2023-02-24T02:19:04;143446.53;;;7.43;100.00
5877;BME280;2964;42.144;24.730;2023-02-24T02:22:02;143376.38;;;7.14;100.00
5877;BME280;2964;42.144;24.730;2023-02-24T02:24:42;143365.06;;;7.10;100.00
5877;BME280;2964;42.144;24.730;2023-02-24T02:30:52;143358.81;;;7.07;100.00
5877;BME280;2964;42.144;24.730;2023-02-24T02:34:06;143385.13;;;7.18;100.00
5877;BME280;2964;42.144;24.730;2023-02-24T02:36:43;143365.06;;;7.10;100.00
5877;BME280;2964;42.144;24.730;2023-02-24T02:39:22;143343.81;;;7.01;100.00
5877;BME280;2964;42.144;24.730;2023-02-24T02:41:58;143382.63;;;7.17;100.00
5877;BME280;2964;42.144;24.730;2023-02-24T02:44:34;143378.84;;;7.15;100.00
5877;BME280;2964;42.144;24.730;2023-02-24T02:47:09;143331.28;;;6.96;100.00
5877;BME280;2964;42.144;24.730;2023-02-24T02:49:41;143385.13;;;7.18;100.00
5877;BME280;2964;42.144;24.730;2023-02-24T02:52:14;143393.91;;;7.22;100.00
5877;BME280;2964;42.144;24.730;2023-02-24T02:54:45;143418.94;;;7.32;100.00
5877;BME280;2964;42.144;24.730;2023-02-24T02:57:17;143434.00;;;7.38;100.00
5877;BME280;2964;42.144;24.730;2023-02-24T02:59:49;143390.16;;;7.20;100.00
5877;BME280;2964;42.144;24.730;2023-02-24T03:02:20;143412.69;;;7.29;100.00
5877;BME280;2964;42.144;24.730;2023-02-24T03:04:55;143302.50;;;6.84;100.00
5877;BME280;2964;42.144;24.730;2023-02-24T03:07:27;143361.34;;;7.08;100.00
5877;BME280;2964;42.144;24.730;2023-02-24T03:09:58;143373.84;;;7.13;100.00
5877;BME280;2964;42.144;24.730;2023-02-24T03:12:28;143217.34;;;6.49;100.00
5877;BME280;2964;42.144;24.730;2023-02-24T03:14:59;143291.19;;;6.80;100.00
5877;BME280;2964;42.144;24.730;2023-02-24T03:17:31;143301.22;;;6.84;100.00
5877;BME280;2964;42.144;24.730;2023-02-24T03:20:05;143398.91;;;7.24;100.00
5877;BME280;2964;42.144;24.730;2023-02-24T03:22:44;143418.94;;;7.32;100.00
5877;BME280;2964;42.144;24.730;2023-02-24T03:25:11;143439.00;;;7.40;100.00
5877;BME280;2964;42.144;24.730;2023-02-24T03:27:44;143363.84;;;7.09;100.00
5877;BME280;2964;42.144;24.730;2023-02-24T03:30:16;143430.22;;;7.37;100.00
5877;BME280;2964;42.144;24.730;2023-02-24T03:32:50;143425.22;;;7.34;100.00
5877;BME280;2964;42.144;24.730;2023-02-24T03:35:23;143441.47;;;7.41;100.00
5877;BME280;2964;42.144;24.730;2023-02-24T03:37:50;143441.47;;;7.41;100.00
5877;BME280;2964;42.144;24.730;2023-02-24T03:40:19;143357.59;;;7.07;100.00
5877;BME280;2964;42.144;24.730;2023-02-24T03:42:57;143383.91;;;7.18;100.00
5877;BME280;2964;42.144;24.730;2023-02-24T03:45:30;143341.28;;;7.00;100.00
5877;BME280;2964;42.144;24.730;2023-02-24T03:47:59;143352.59;;;7.05;100.00
5877;BME280;2964;42.144;24.730;2023-02-24T03:50:30;143396.38;;;7.23;100.00
5877;BME280;2964;42.144;24.730;2023-02-24T03:53:04;143357.59;;;7.07;100.00
5877;BME280;2964;42.144;24.730;2023-02-24T03:55:42;143386.38;;;7.19;100.00
5877;BME280;2964;42.144;24.730;2023-02-24T03:58:17;143333.75;;;6.97;100.00
5877;BME280;2964;42.144;24.730;2023-02-24T04:00:53;143387.63;;;7.19;100.00
5877;BME280;2964;42.144;24.730;2023-02-24T04:03:30;143388.91;;;7.20;100.00
5877;BME280;2964;42.144;24.730;2023-02-24T04:06:07;143427.72;;;7.35;100.00
5877;BME280;2964;42.144;24.730;2023-02-24T04:08:41;143416.47;;;7.31;100.00
5877;BME280;2964;42.144;24.730;2023-02-24T04:11:16;143391.38;;;7.21;100.00
5877;BME280;2964;42.144;24.730;2023-02-24T04:13:51;143405.16;;;7.26;100.00
5877;BME280;2964;42.144;24.730;2023-02-24T04:16:26;143350.06;;;7.04;100.00
5877;BME280;2964;42.144;24.730;2023-02-24T04:18:56;143393.91;;;7.22;100.00
5877;BME280;2964;42.144;24.730;2023-02-24T04:21:28;143348.81;;;7.03;100.00
5877;BME280;2964;42.144;24.730;2023-02-24T04:23:58;143278.69;;;6.74;100.00
5877;BME280;2964;42.144;24.730;2023-02-24T04:26:31;143391.38;;;7.21;100.00
5877;BME280;2964;42.144;24.730;2023-02-24T04:28:59;143361.34;;;7.08;100.00
5877;BME280;2964;42.144;24.730;2023-02-24T04:31:28;143407.69;;;7.27;100.00
5877;BME280;2964;42.144;24.730;2023-02-24T04:33:56;143400.16;;;7.24;100.00
5877;BME280;2964;42.144;24.730;2023-02-24T04:36:24;143431.47;;;7.37;100.00
5877;BME280;2964;42.144;24.730;2023-02-24T04:38:53;143421.47;;;7.33;100.00
5877;BME280;2964;42.144;24.730;2023-02-24T04:41:19;143398.91;;;7.24;100.00
5877;BME280;2964;42.144;24.730;2023-02-24T04:43:47;143358.81;;;7.07;100.00
5877;BME280;2964;42.144;24.730;2023-02-24T04:46:15;143363.84;;;7.09;100.00
5877;BME280;2964;42.144;24.730;2023-02-24T04:48:42;143353.81;;;7.05;100.00
5877;BME280;2964;42.144;24.730;2023-02-24T04:51:09;143336.28;;;6.98;100.00
5877;BME280;2964;42.144;24.730;2023-02-24T04:53:36;143351.28;;;7.04;100.00
5877;BME280;2964;42.144;24.730;2023-02-24T04:56:05;143301.22;;;6.84;100.00
5877;BME280;2964;42.144;24.730;2023-02-24T04:58:34;143395.16;;;7.22;100.00
5877;BME280;2964;42.144;24.730;2023-02-24T05:01:06;143418.94;;;7.32;100.00
5877;BME280;2964;42.144;24.730;2023-02-24T05:03:35;143408.94;;;7.28;100.00
5877;BME280;2964;42.144;24.730;2023-02-24T05:06:02;143421.47;;;7.33;100.00
5877;BME280;2964;42.144;24.730;2023-02-24T05:08:31;143398.91;;;7.24;100.00
5877;BME280;2964;42.144;24.730;2023-02-24T05:10:58;143361.34;;;7.08;100.00
5877;BME280;2964;42.144;24.730;2023-02-24T05:13:30;143383.91;;;7.18;100.00
5877;BME280;2964;42.144;24.730;2023-02-24T05:15:59;143425.22;;;7.34;100.00
5877;BME280;2964;42.144;24.730;2023-02-24T05:18:25;143431.47;;;7.37;99.45
5877;BME280;2964;42.144;24.730;2023-02-24T05:20:55;143413.94;;;7.30;99.61
5877;BME280;2964;42.144;24.730;2023-02-24T05:23:41;143396.38;;;7.23;100.00
5877;BME280;2964;42.144;24.730;2023-02-24T05:26:09;143418.94;;;7.32;99.71
5877;BME280;2964;42.144;24.730;2023-02-24T05:28:39;143425.22;;;7.34;99.80
5877;BME280;2964;42.144;24.730;2023-02-24T05:31:08;143391.38;;;7.21;100.00
5877;BME280;2964;42.144;24.730;2023-02-24T05:33:36;143411.44;;;7.29;99.31
5877;BME280;2964;42.144;24.730;2023-02-24T05:36:04;143416.47;;;7.31;99.19
5877;BME280;2964;42.144;24.730;2023-02-24T05:38:32;143363.84;;;7.09;99.86
5877;BME280;2964;42.144;24.730;2023-02-24T05:41:06;143398.91;;;7.24;99.48
5877;BME280;2964;42.144;24.730;2023-02-24T05:43:33;143366.34;;;7.10;99.94
5877;BME280;2964;42.144;24.730;2023-02-24T05:46:04;143338.81;;;6.99;100.00
5877;BME280;2964;42.144;24.730;2023-02-24T05:48:31;143351.28;;;7.04;100.00
5877;BME280;2964;42.144;24.730;2023-02-24T05:51:00;143351.28;;;7.04;99.90
5877;BME280;2964;42.144;24.730;2023-02-24T05:53:27;143371.38;;;7.12;99.90
5877;BME280;2964;42.144;24.730;2023-02-24T05:55:53;143388.91;;;7.20;99.22
5877;BME280;2964;42.144;24.730;2023-02-24T05:58:20;143376.38;;;7.14;99.26
5877;BME280;2964;42.144;24.730;2023-02-24T06:00:48;143388.91;;;7.20;99.31
5877;BME280;2964;42.144;24.730;2023-02-24T06:03:18;143421.47;;;7.33;98.96
5877;BME280;2964;42.144;24.730;2023-02-24T06:05:55;143420.22;;;7.32;98.64
5877;BME280;2964;42.144;24.730;2023-02-24T06:08:30;143385.13;;;7.18;99.42
5877;BME280;2964;42.144;24.730;2023-02-24T06:11:07;143396.38;;;7.23;98.98
5877;BME280;2964;42.144;24.730;2023-02-24T06:13:35;143403.91;;;7.26;98.72
5877;BME280;2964;42.144;24.730;2023-02-24T06:16:02;143418.94;;;7.32;98.66
5877;BME280;2964;42.144;24.730;2023-02-24T06:18:30;143380.13;;;7.16;98.78
5877;BME280;2964;42.144;24.730;2023-02-24T06:21:00;143358.81;;;7.07;99.49
5877;BME280;2964;42.144;24.730;2023-02-24T06:23:27;143381.38;;;7.17;99.22
5877;BME280;2964;42.144;24.730;2023-02-24T06:25:54;143360.06;;;7.08;99.16
5877;BME280;2964;42.144;24.730;2023-02-24T06:28:22;143416.47;;;7.31;99.22
5877;BME280;2964;42.144;24.730;2023-02-24T06:30:49;143427.72;;;7.35;98.77
5877;BME280;2964;42.144;24.730;2023-02-24T06:33:16;143370.13;;;7.12;99.49
5877;BME280;2964;42.144;24.730;2023-02-24T06:35:44;143377.59;;;7.15;100.00
5877;BME280;2964;42.144;24.730;2023-02-24T06:38:11;143413.94;;;7.30;99.09
5877;BME280;2964;42.144;24.730;2023-02-24T06:40:42;143377.59;;;7.15;99.12
5877;BME280;2964;42.144;24.730;2023-02-24T06:43:08;143346.28;;;7.02;99.45
5877;BME280;2964;42.144;24.730;2023-02-24T06:45:36;143408.94;;;7.28;99.19
5877;BME280;2964;42.144;24.730;2023-02-24T06:48:02;143429.00;;;7.36;98.72
5877;BME280;2964;42.144;24.730;2023-02-24T06:50:29;143451.53;;;7.45;98.20
5877;BME280;2964;42.144;24.730;2023-02-24T06:52:58;143431.47;;;7.37;99.45
5877;BME280;2964;42.144;24.730;2023-02-24T06:55:25;143516.69;;;7.72;98.13
5877;BME280;2964;42.144;24.730;2023-02-24T06:57:53;143524.22;;;7.75;97.51
5877;BME280;2964;42.144;24.730;2023-02-24T07:00:24;143471.56;;;7.53;98.96
5877;BME280;2964;42.144;24.730;2023-02-24T07:03:02;143543.00;;;7.83;97.90
5877;BME280;2964;42.144;24.730;2023-02-24T07:05:40;143507.91;;;7.68;97.78
5877;BME280;2964;42.144;24.730;2023-02-24T07:08:08;143466.56;;;7.51;99.23
5877;BME280;2964;42.144;24.730;2023-02-24T07:10:36;143511.66;;;7.70;97.67
5877;BME280;2964;42.144;24.730;2023-02-24T07:13:03;143569.34;;;7.93;96.80
5877;BME280;2964;42.144;24.730;2023-02-24T07:15:33;143516.69;;;7.72;97.24
5877;BME280;2964;42.144;24.730;2023-02-24T07:18:01;143564.31;;;7.91;96.38
5877;BME280;2964;42.144;24.730;2023-02-24T07:20:28;143584.34;;;8.00;96.51
5877;BME280;2964;42.144;24.730;2023-02-24T07:22:55;143554.25;;;7.87;96.82
5877;BME280;2964;42.144;24.730;2023-02-24T07:25:23;143556.78;;;7.88;96.69
5877;BME280;2964;42.144;24.730;2023-02-24T07:27:58;143621.94;;;8.15;96.17
5877;BME280;2964;42.144;24.730;2023-02-24T07:30:26;143623.22;;;8.16;95.80
5877;BME280;2964;42.144;24.730;2023-02-24T07:32:54;143609.44;;;8.10;95.73
5877;BME280;2964;42.144;24.730;2023-02-24T07:35:21;143581.88;;;7.99;96.26
5877;BME280;2964;42.144;24.730;2023-02-24T07:37:48;143515.44;;;7.71;96.52
5877;BME280;2964;42.144;24.730;2023-02-24T07:40:15;143614.47;;;8.12;96.64
5877;BME280;2964;42.144;24.730;2023-02-24T07:42:43;143579.34;;;7.98;96.42
5877;BME280;2964;42.144;24.730;2023-02-24T07:45:12;143573.09;;;7.95;97.30
5877;BME280;2964;42.144;24.730;2023-02-24T07:47:39;143570.56;;;7.94;97.02
5877;BME280;2964;42.144;24.730;2023-02-24T07:50:07;143526.69;;;7.76;97.24
5877;BME280;2964;42.144;24.730;2023-02-24T07:52:38;143573.09;;;7.95;97.45
5877;BME280;2964;42.144;24.730;2023-02-24T07:55:06;143491.66;;;7.62;97.93
5877;BME280;2964;42.144;24.730;2023-02-24T07:57:34;143662.06;;;8.31;96.51
5877;BME280;2964;42.144;24.730;2023-02-24T08:00:06;143629.47;;;8.18;96.76
5877;BME280;2964;42.144;24.730;2023-02-24T08:02:44;143699.75;;;8.47;95.27
5877;BME280;2964;42.144;24.730;2023-02-24T08:05:11;143530.47;;;7.78;96.71
5877;BME280;2964;42.144;24.730;2023-02-24T08:07:38;143526.69;;;7.76;98.28
5877;BME280;2964;42.144;24.730;2023-02-24T08:10:06;143521.69;;;7.74;98.45
5877;BME280;2964;42.144;24.730;2023-02-24T08:12:39;143536.75;;;7.80;97.98
5877;BME280;2964;42.144;24.730;2023-02-24T08:15:10;143684.63;;;8.41;96.11
5877;BME280;2964;42.144;24.730;2023-02-24T08:17:46;143692.22;;;8.44;96.33
5877;BME280;2964;42.144;24.730;2023-02-24T08:20:13;143798.84;;;8.87;94.86
5877;BME280;2964;42.144;24.730;2023-02-24T08:22:51;143743.63;;;8.65;94.01
5877;BME280;2964;42.144;24.730;2023-02-24T08:25:20;143696.00;;;8.45;95.77
5877;BME280;2964;42.144;24.730;2023-02-24T08:27:49;143736.13;;;8.62;95.67
5877;BME280;2964;42.144;24.730;2023-02-24T08:30:22;143599.38;;;8.06;97.06
5877;BME280;2964;42.144;24.730;2023-02-24T08:32:50;143657.06;;;8.29;97.79
5877;BME280;2964;42.144;24.730;2023-02-24T08:35:23;143749.91;;;8.67;96.35
5877;BME280;2964;42.144;24.730;2023-02-24T08:37:57;143642.03;;;8.23;97.33
5877;BME280;2964;42.144;24.730;2023-02-24T08:40:27;143724.81;;;8.57;97.76
5877;BME280;2964;42.144;24.730;2023-02-24T08:43:20;143693.47;;;8.44;96.52
5877;BME280;2964;42.144;24.730;2023-02-24T08:46:01;143618.22;;;8.14;96.51
5877;BME280;2964;42.144;24.730;2023-02-24T08:48:30;143637.03;;;8.21;98.42
5877;BME280;2964;42.144;24.730;2023-02-24T08:51:05;143757.47;;;8.71;96.14
5877;BME280;2964;42.144;24.730;2023-02-24T08:53:32;143692.22;;;8.44;96.49
5877;BME280;2964;42.144;24.730;2023-02-24T08:56:00;143699.75;;;8.47;97.36
5877;BME280;2964;42.144;24.730;2023-02-24T08:58:34;143694.75;;;8.45;97.57
5877;BME280;2964;42.144;24.730;2023-02-24T09:01:11;143759.94;;;8.72;96.98
5877;BME280;2964;42.144;24.730;2023-02-24T09:03:43;143870.34;;;9.17;95.79
5877;BME280;2964;42.144;24.730;2023-02-24T09:06:11;144008.38;;;9.73;93.52
5877;BME280;2964;42.144;24.730;2023-02-24T09:08:42;144020.94;;;9.78;93.15
5877;BME280;2964;42.144;24.730;2023-02-24T09:11:10;143985.78;;;9.64;93.02
5877;BME280;2964;42.144;24.730;2023-02-24T09:13:40;143990.78;;;9.66;93.05
5877;BME280;2964;42.144;24.730;2023-02-24T09:16:18;143939.34;;;9.45;93.69
5877;BME280;2964;42.144;24.730;2023-02-24T09:18:46;144044.75;;;9.88;93.49
5877;BME280;2964;42.144;24.730;2023-02-24T09:21:32;144071.13;;;9.99;91.92
5877;BME280;2964;42.144;24.730;2023-02-24T09:24:16;144063.59;;;9.96;92.21
5877;BME280;2964;42.144;24.730;2023-02-24T09:26:51;144113.84;;;10.16;90.92
5877;BME280;2964;42.144;24.730;2023-02-24T09:29:23;144097.50;;;10.10;90.74
5877;BME280;2964;42.144;24.730;2023-02-24T09:32:01;144194.22;;;10.49;89.96
5877;BME280;2964;42.144;24.730;2023-02-24T09:34:32;144092.50;;;10.08;92.09
5877;BME280;2964;42.144;24.730;2023-02-24T09:36:59;144136.44;;;10.26;91.12
5877;BME280;2964;42.144;24.730;2023-02-24T09:39:31;144303.56;;;10.94;89.44
5877;BME280;2964;42.144;24.730;2023-02-24T09:42:20;144458.13;;;11.57;86.48
5877;BME280;2964;42.144;24.730;2023-02-24T09:45:01;144459.38;;;11.57;86.25
5877;BME280;2964;42.144;24.730;2023-02-24T09:47:34;144470.72;;;11.62;85.42
5877;BME280;2964;42.144;24.730;2023-02-24T09:50:25;144571.34;;;12.03;84.17
5877;BME280;2964;42.144;24.730;2023-02-24T09:52:57;144553.72;;;11.96;83.61
5877;BME280;2964;42.144;24.730;2023-02-24T09:55:42;144377.69;;;11.24;85.41
5877;BME280;2964;42.144;24.730;2023-02-24T09:58:29;144622.88;;;12.24;82.30
5877;BME280;2964;42.144;24.730;2023-02-24T10:01:03;144557.50;;;11.97;83.15
5877;BME280;2964;42.144;24.730;2023-02-24T10:03:50;144627.91;;;12.26;83.46
5877;BME280;2964;42.144;24.730;2023-02-24T10:06:30;144575.13;;;12.05;82.04
5877;BME280;2964;42.144;24.730;2023-02-24T10:09:05;144470.72;;;11.62;84.20
5877;BME280;2964;42.144;24.730;2023-02-24T10:11:38;144654.31;;;12.37;82.85
5877;BME280;2964;42.144;24.730;2023-02-24T10:14:08;144576.38;;;12.05;82.30
5877;BME280;2964;42.144;24.730;2023-02-24T10:16:44;144417.91;;;11.40;83.38
5877;BME280;2964;42.144;24.730;2023-02-24T10:19:33;144275.88;;;10.82;87.35
5877;BME280;2964;42.144;24.730;2023-02-24T10:22:04;144529.81;;;11.86;84.20
5877;BME280;2964;42.144;24.730;2023-02-24T10:24:37;144571.34;;;12.03;82.73
5877;BME280;2964;42.144;24.730;2023-02-24T10:27:10;144479.53;;;11.66;83.53
5877;BME280;2964;42.144;24.730;2023-02-24T10:29:49;144505.88;;;11.76;83.50
5877;BME280;2964;42.144;24.730;2023-02-24T10:32:25;144548.69;;;11.94;83.12
5877;BME280;2964;42.144;24.730;2023-02-24T10:35:00;144500.84;;;11.74;82.43
5877;BME280;2964;42.144;24.730;2023-02-24T10:37:28;144391.50;;;11.30;84.54
5877;BME280;2964;42.144;24.730;2023-02-24T10:39:56;144416.66;;;11.40;84.06
5877;BME280;2964;42.144;24.730;2023-02-24T10:42:25;144668.16;;;12.43;80.45
5877;BME280;2964;42.144;24.730;2023-02-24T10:45:05;144599.00;;;12.14;80.91
5877;BME280;2964;42.144;24.730;2023-02-24T10:47:37;144503.38;;;11.75;83.15
5877;BME280;2964;42.144;24.730;2023-02-24T10:50:20;144440.53;;;11.50;83.38
5877;BME280;2964;42.144;24.730;2023-02-24T10:52:48;144489.56;;;11.70;82.69
5877;BME280;2964;42.144;24.730;2023-02-24T10:55:38;144518.47;;;11.82;82.95
5877;BME280;2964;42.144;24.730;2023-02-24T10:58:21;144599.00;;;12.14;81.70
5877;BME280;2964;42.144;24.730;2023-02-24T11:01:07;144684.53;;;12.49;80.79
5877;BME280;2964;42.144;24.730;2023-02-24T11:03:38;144734.84;;;12.70;79.46
5877;BME280;2964;42.144;24.730;2023-02-24T11:06:26;144755.00;;;12.78;78.91
5877;BME280;2964;42.144;24.730;2023-02-24T11:09:18;144693.34;;;12.53;78.01
5877;BME280;2964;42.144;24.730;2023-02-24T11:11:58;144558.75;;;11.98;79.70
5877;BME280;2964;42.144;24.730;2023-02-24T11:14:51;144601.53;;;12.15;80.63
5877;BME280;2964;42.144;24.730;2023-02-24T11:17:44;144502.16;;;11.75;81.28
5877;BME280;2964;42.144;24.730;2023-02-24T11:20:29;144533.59;;;11.88;82.06
5877;BME280;2964;42.144;24.730;2023-02-24T11:22:57;144625.41;;;12.25;80.91
5877;BME280;2964;42.144;24.730;2023-02-24T11:25:34;144458.13;;;11.57;82.92
5877;BME280;2964;42.144;24.730;2023-02-24T11:28:04;144292.22;;;10.89;85.32
5877;BME280;2964;42.144;24.730;2023-02-24T11:30:39;144313.59;;;10.98;85.70
5877;BME280;2964;42.144;24.730;2023-02-24T11:33:16;144435.50;;;11.48;84.26
5877;BME280;2964;42.144;24.730;2023-02-24T11:35:52;144435.50;;;11.48;84.48
5877;BME280;2964;42.144;24.730;2023-02-24T11:38:31;144451.81;;;11.54;83.45
5877;BME280;2964;42.144;24.730;2023-02-24T11:41:06;144438.00;;;11.49;83.99
5877;BME280;2964;42.144;24.730;2023-02-24T11:43:39;144510.94;;;11.78;83.02
5877;BME280;2964;42.144;24.730;2023-02-24T11:46:11;144473.19;;;11.63;83.29
5877;BME280;2964;42.144;24.730;2023-02-24T11:48:44;144430.50;;;11.46;84.59
5877;BME280;2964;42.144;24.730;2023-02-24T11:51:15;144488.31;;;11.69;83.89
5877;BME280;2964;42.144;24.730;2023-02-24T11:53:49;144532.28;;;11.87;83.03
5877;BME280;2964;42.144;24.730;2023-02-24T11:56:20;144543.69;;;11.92;82.19
5877;BME280;2964;42.144;24.730;2023-02-24T11:58:52;144513.44;;;11.79;82.46
5877;BME280;2964;42.144;24.730;2023-02-24T12:01:28;144426.72;;;11.44;83.23
5877;BME280;2964;42.144;24.730;2023-02-24T12:04:04;144485.78;;;11.68;83.15
5877;BME280;2964;42.144;24.730;2023-02-24T12:06:39;144529.81;;;11.86;82.42
5877;BME280;2964;42.144;24.730;2023-02-24T12:09:12;144552.47;;;11.95;81.98
5877;BME280;2964;42.144;24.730;2023-02-24T12:11:46;144548.69;;;11.94;82.17
5877;BME280;2964;42.144;24.730;2023-02-24T12:14:21;144554.97;;;11.96;81.39
5877;BME280;2964;42.144;24.730;2023-02-24T12:16:55;144572.59;;;12.04;81.13
5877;BME280;2964;42.144;24.730;2023-02-24T12:19:28;144592.72;;;12.12;80.83
5877;BME280;2964;42.144;24.730;2023-02-24T12:22:01;144615.38;;;12.21;80.80
5877;BME280;2964;42.144;24.730;2023-02-24T12:24:34;144560.00;;;11.98;81.89
5877;BME280;2964;42.144;24.730;2023-02-24T12:27:08;144596.47;;;12.13;81.20
5877;BME280;2964;42.144;24.730;2023-02-24T12:29:52;144621.63;;;12.24;80.36
5877;BME280;2964;42.144;24.730;2023-02-24T12:32:28;144561.28;;;11.99;81.61
5877;BME280;2964;42.144;24.730;2023-02-24T12:35:03;144663.13;;;12.41;79.99
5877;BME280;2964;42.144;24.730;2023-02-24T12:37:47;144479.53;;;11.66;80.55
5877;BME280;2964;42.144;24.730;2023-02-24T12:40:28;144556.25;;;11.97;80.44
5877;BME280;2964;42.144;24.730;2023-02-24T12:43:07;144468.19;;;11.61;81.78
5877;BME280;2964;42.144;24.730;2023-02-24T12:45:45;144524.78;;;11.84;81.75
5877;BME280;2964;42.144;24.730;2023-02-24T12:48:27;144597.75;;;12.14;80.39
5877;BME280;2964;42.144;24.730;2023-02-24T12:51:03;144568.81;;;12.02;80.49
5877;BME280;2964;42.144;24.730;2023-02-24T12:53:39;144621.63;;;12.24;79.71
5877;BME280;2964;42.144;24.730;2023-02-24T12:56:14;144499.59;;;11.74;80.72
5877;BME280;2964;42.144;24.730;2023-02-24T12:58:45;144505.88;;;11.76;81.31
5877;BME280;2964;42.144;24.730;2023-02-24T13:01:20;144444.31;;;11.51;82.65
5877;BME280;2964;42.144;24.730;2023-02-24T13:06:46;144451.81;;;11.54;82.24
5877;BME280;2964;42.144;24.730;2023-02-24T13:09:22;144475.75;;;11.64;82.08
5877;BME280;2964;42.144;24.730;2023-02-24T13:11:55;144441.78;;;11.50;82.61
5877;BME280;2964;42.144;24.730;2023-02-24T13:14:26;144391.50;;;11.30;83.02
5877;BME280;2964;42.144;24.730;2023-02-24T13:17:18;144494.59;;;11.72;81.96
5877;BME280;2964;42.144;24.730;2023-02-24T13:19:46;144470.72;;;11.62;82.23
5877;BME280;2964;42.144;24.730;2023-02-24T13:22:24;144473.19;;;11.63;82.10
5877;BME280;2964;42.144;24.730;2023-02-24T13:24:57;144382.72;;;11.26;82.74
5877;BME280;2964;42.144;24.730;2023-02-24T13:27:28;144458.13;;;11.57;82.55
5877;BME280;2964;42.144;24.730;2023-02-24T13:29:57;144438.00;;;11.49;82.79
5877;BME280;2964;42.144;24.730;2023-02-24T13:32:30;144425.47;;;11.44;83.39
5877;BME280;2964;42.144;24.730;2023-02-24T13:34:59;144422.94;;;11.43;83.28
5877;BME280;2964;42.144;24.730;2023-02-24T13:37:31;144319.88;;;11.00;83.88